Terminal Aerodrome Forecast
Issued by NWS Wilmington, NC

Home | Current Version | Previous Version | Text Only | Print | Product List | Glossary On
Versions: 1 2 3 4 5 6 7 8 9 10 11 12 13 14
018
FTUS42 KILM 031742
TAFFLO
TAF
KFLO 031742Z 0318/0418 03006KT P6SM BKN200
     FM040600 06004KT P6SM OVC100
     FM041500 07007KT P6SM OVC050
      TEMPO 0415/0418 6SM -RA OVC050
      AMD NOT SKED=

USA.gov is the U.S. government's official web portal to all federal, state and local government web resources and services.